Mitchell, IN

7:07 PM EDT on August 30, 2015 (GMT -0400)
yockey | | Change Station
CLOSE
Current Station
Personal Weather Station
Location: Mitchell, IN
Elevation: 654 ft
Nearby Weather Stations

Elev 654 ft 38.79 °N, 86.50 °W | Updated 1 second ago

Mostly Cloudy
Mostly Cloudy
81.1 °F
Feels Like 85 °F
N
2.0
Wind Variable Wind from SSW
Gusts 2.0 mph

Today
High -- | Low -- °F
--% Chance of Precip.
Yesterday
High -- | Low -- °F
Precip. -- in
7:13 AM 8:19 PM
Full, 98% visible
Pressure 30.02 in
Visibility 10.0 miles
Clouds Scattered Clouds 10000 ft
Heat Index 85 °F
Dew Point 71 °F
Humidity 72%
Rainfall 0.00 in
Snow Depth Not available.
UV 0.0 out of 12
Pollen 9.50 out of 12
Air Quality Not available.
Flu Activity Not available.
METAR KBMG 302253Z 16005KT 10SM SCT100 26/20 A3005 RMK AO2 LTG DSNT W SLP166 T02610200
Pressure 30.02 in
Visibility 10.0 miles
Clouds Scattered Clouds 10000 ft
Heat Index 85 °F
Dew Point 71 °F
Humidity 72%
Rainfall 0.00 in
Snow Depth Not available.
UV 0.0 out of 12
Pollen 9.50 out of 12
Air Quality Not available.
Flu Activity Not available.
METAR KBMG 302253Z 16005KT 10SM SCT100 26/20 A3005 RMK AO2 LTG DSNT W SLP166 T02610200

10-Day Weather Forecast

×

Almanac

Astronomy

Aug. 30, 2015 Rise Set
Actual Time
Civil Twilight
Nautical Twilight
Astronomical Twilight
Moon
Length of Visible Light
Length of Day
Tomorrow will be .
, % of the Moon is Illuminated

Today's Extremes

State Highs State Lows

Community

WunderPhotos

Upload Photos

1,851,087 photos uploaded!

WunderBlogs® & News

Nearby

Air Quality

  Air Quality AQ Index Pollutant
Not available.

Snow Depth

Station Depth Elevation

Earthquake Activity

City Distance Mag. Time & Date
Minimum magnitude displayed is 2.5.

Coastal Water Temperatures

Place Temperature

Stations

Nearby Weather Stations

Station Location Temp. Windchill Dew Point Humidity Wind Precip. Elev Updated Type